Terminal Aerodrome Forecast
Issued by NWS Twin Cities, MN

Home | Current Version | Previous Version | Graphics & Text | Print | Product List | Glossary On
Versions: 1 2 3 4 5 6 7 8 9 10 11 12 13 14 15 16 17 18 19 20 21 22
000
FTUS43 KMPX 311253 AAA
TAFEAU
TAF AMD
KEAU 311253Z 3113/0112 19004KT 3SM BR OVC004
     FM311500 19009KT P6SM BKN010
     FM311700 19014G20KT P6SM SKC
     FM010000 18007KT P6SM SCT250
     FM011000 18003KT 2SM BR SCT010=

USA.gov is the U.S. government's official web portal to all federal, state and local government web resources and services.